Mormon Lake, Arizona
Current Conditions -  °F | °C
As of 12:15 PM on Friday 28 Nov 2014 (Local Time) from KSEZ Reporting Station
Clear Clear  
Wind Chill: 70°   Ceiling: Unl
Heat Index: 70°   Visibility: 10mi
Dew Point: 19°   Wind: 0mph
Humidity: 15%   Direction: NA
Pressure: 30.16"   Gusts: NA
Location:  34.91°N, 111.47°W
Report Text: KSEZ 281915Z AUTO 00000KT 10SM CLR 21/M07 A3016 RMK AO2
Loading
Personal Weather Stations






























Interactive Weather Map New forecast layout! Learn more

10-Day Weather Forecast

Advertisements
Track Severe Weather on mobile